Time;durP1;ratioP1;P1;durP2;ratioP2;P2;SDS_P1;SDS_P2;PMS_P1;PMS_P2;Temp;Humidity;BMP_temperature;BMP_pressure;BME280_temperature;BME280_humidity;BME280_pressure;Samples;Min_cycle;Max_cycle;Signal;HPM_P1;HPM_P2
2021/11/12 00:14:32;;;;;;;11.00;8.93;;;7.70;99.90;;;;;;5013581;28;20431;-74
2021/11/12 00:16:58;;;;;;;8.97;7.30;;;7.60;99.90;;;;;;5014343;28;20450;-74
2021/11/12 00:19:24;;;;;;;10.60;7.90;;;7.60;99.90;;;;;;5014576;28;20482;-74
2021/11/12 00:21:49;;;;;;;10.10;8.20;;;7.60;99.90;;;;;;5014496;28;20445;-73
2021/11/12 00:24:15;;;;;;;9.27;8.20;;;7.40;99.90;;;;;;5015849;28;20207;-73
2021/11/12 00:26:40;;;;;;;9.77;8.30;;;7.40;99.90;;;;;;5013848;28;20184;-73
2021/11/12 00:29:08;;;;;;;9.70;7.70;;;7.40;99.90;;;;;;5013237;28;20172;-73
2021/11/12 00:37:11;;;;;;;9.40;8.00;;;7.40;99.90;;;;;;5034497;28;20937;-73
2021/11/12 00:44:39;;;;;;;8.87;7.40;;;7.10;99.90;;;;;;5024848;28;20220;-72
2021/11/12 00:47:26;;;;;;;11.50;8.07;;;7.10;99.90;;;;;;5033978;28;20397;-72
2021/11/12 00:55:25;;;;;;;8.10;7.30;;;6.90;99.90;;;;;;5034360;28;20468;-72
2021/11/12 00:57:52;;;;;;;8.80;7.90;;;6.80;99.90;;;;;;5033999;28;20410;-73
2021/11/12 01:00:19;;;;;;;13.33;9.77;;;6.80;99.90;;;;;;5034152;28;20532;-75
2021/11/12 01:02:45;;;;;;;9.00;8.10;;;6.70;99.90;;;;;;5032907;28;20486;-71
2021/11/12 01:05:12;;;;;;;11.97;9.60;;;6.70;99.90;;;;;;5033531;28;20417;-71
2021/11/12 01:07:38;;;;;;;12.03;9.23;;;6.70;99.90;;;;;;5047675;28;20167;-73
2021/11/12 01:10:06;;;;;;;11.23;9.63;;;6.70;99.90;;;;;;5036421;28;20422;-72
2021/11/12 01:12:33;;;;;;;11.63;10.43;;;6.80;99.90;;;;;;5013531;28;20426;-74
2021/11/12 01:14:59;;;;;;;13.83;9.70;;;6.80;99.90;;;;;;5019912;28;20429;-73
2021/11/12 01:17:24;;;;;;;11.63;9.70;;;6.80;99.90;;;;;;5016027;28;20493;-72
2021/11/12 01:19:50;;;;;;;16.80;12.40;;;6.80;99.90;;;;;;5014257;28;20446;-72
2021/11/12 01:22:16;;;;;;;17.67;12.10;;;6.90;99.90;;;;;;5015651;28;20168;-72
2021/11/12 01:24:43;;;;;;;19.03;12.57;;;6.90;99.90;;;;;;5019353;28;20529;-74
2021/11/12 01:27:09;;;;;;;16.40;11.13;;;7.00;99.90;;;;;;5017803;28;20497;-72
2021/11/12 01:29:35;;;;;;;13.53;10.27;;;7.00;99.90;;;;;;5017488;28;20425;-74
2021/11/12 01:32:21;;;;;;;14.40;10.87;;;7.00;99.90;;;;;;5017419;28;20866;-74
2021/11/12 01:34:53;;;;;;;16.90;11.63;;;7.00;99.90;;;;;;5018743;28;20470;-74
2021/11/12 01:37:21;;;;;;;14.73;11.73;;;7.00;99.90;;;;;;5018713;28;20911;-74
2021/11/12 01:39:53;;;;;;;13.67;10.67;;;7.00;99.90;;;;;;5018041;28;20411;-74
2021/11/12 01:42:21;;;;;;;14.70;12.20;;;7.00;99.90;;;;;;5019004;28;20831;-73
2021/11/12 01:44:52;;;;;;;16.70;11.57;;;7.00;99.90;;;;;;5020041;28;20468;-72
2021/11/12 01:47:33;;;;;;;17.57;12.67;;;7.00;99.90;;;;;;5019129;28;20761;-75
2021/11/12 01:50:07;;;;;;;14.37;11.00;;;7.10;99.90;;;;;;5017049;28;20966;-73
2021/11/12 01:52:38;;;;;;;15.47;12.23;;;7.10;99.90;;;;;;5018363;28;20445;-73
2021/11/12 01:55:08;;;;;;;18.17;13.13;;;7.10;99.90;;;;;;5018508;28;20584;-72
2021/11/12 01:58:04;;;;;;;18.57;13.80;;;7.20;99.90;;;;;;5019131;28;20422;-73
2021/11/12 02:00:32;;;;;;;17.07;12.57;;;7.10;99.90;;;;;;5018199;28;20432;-73
2021/11/12 02:02:59;;;;;;;17.80;12.80;;;7.00;99.90;;;;;;5018248;28;20438;-73
2021/11/12 02:05:25;;;;;;;23.00;13.63;;;6.90;99.90;;;;;;5018211;28;20846;-73
2021/11/12 02:07:51;;;;;;;18.13;13.57;;;6.90;99.90;;;;;;5019524;28;21024;-72
2021/11/12 02:10:25;;;;;;;17.10;13.50;;;6.80;99.90;;;;;;5018537;28;20410;-72
2021/11/12 02:13:03;;;;;;;18.67;13.03;;;6.80;99.90;;;;;;5018086;28;20879;-72
2021/11/12 02:15:31;;;;;;;18.07;12.83;;;6.80;99.90;;;;;;5017954;28;21224;-73
2021/11/12 02:18:00;;;;;;;18.90;13.60;;;6.80;99.90;;;;;;5019460;28;20816;-73
2021/11/12 02:20:33;;;;;;;18.93;13.40;;;6.70;99.90;;;;;;5017822;28;20417;-72
2021/11/12 02:23:02;;;;;;;19.33;12.70;;;6.60;99.90;;;;;;5001852;28;20565;-72
2021/11/12 02:25:33;;;;;;;16.87;13.77;;;6.50;99.90;;;;;;5017444;28;20417;-73
2021/11/12 02:28:11;;;;;;;20.43;13.57;;;6.50;99.90;;;;;;5017895;28;20415;-73
2021/11/12 02:30:38;;;;;;;21.40;14.23;;;6.50;99.90;;;;;;5016997;28;20410;-73
2021/11/12 02:33:19;;;;;;;20.20;14.53;;;6.50;99.90;;;;;;5016638;28;20446;-72
2021/11/12 02:36:06;;;;;;;20.40;14.50;;;6.50;99.90;;;;;;5016961;28;20537;-72
2021/11/12 02:38:34;;;;;;;19.03;13.37;;;6.50;99.90;;;;;;5017418;28;20996;-73
2021/11/12 02:41:00;;;;;;;21.13;15.17;;;6.60;99.90;;;;;;5016307;28;20402;-74
2021/11/12 02:43:26;;;;;;;18.37;13.40;;;6.50;99.90;;;;;;5029344;28;20434;-73
2021/11/12 02:45:53;;;;;;;21.13;15.20;;;6.50;99.90;;;;;;5029868;28;20426;-72
2021/11/12 02:48:19;;;;;;;22.60;15.10;;;6.50;99.90;;;;;;5024296;28;20445;-73
2021/11/12 02:50:45;;;;;;;19.97;14.33;;;6.50;99.90;;;;;;5017316;28;20410;-73
2021/11/12 02:53:14;;;;;;;22.27;14.57;;;6.50;99.90;;;;;;5016007;28;20199;-72
2021/11/12 02:55:40;;;;;;;22.83;14.83;;;6.50;99.90;;;;;;5015307;28;20472;-73
2021/11/12 02:58:06;;;;;;;20.37;14.63;;;6.50;99.90;;;;;;5018049;28;20414;-73
2021/11/12 03:00:34;;;;;;;22.10;15.40;;;6.40;99.90;;;;;;5017015;28;20449;-73
2021/11/12 03:02:59;;;;;;;20.00;14.50;;;6.30;99.90;;;;;;5017051;28;20476;-73
2021/11/12 03:05:25;;;;;;;23.43;14.90;;;6.30;99.90;;;;;;5016163;28;20903;-73
2021/11/12 03:07:51;;;;;;;19.40;14.20;;;6.30;99.90;;;;;;5014641;28;20606;-73
2021/11/12 03:10:16;;;;;;;26.07;18.27;;;6.30;99.90;;;;;;5015990;28;20543;-72
2021/11/12 03:12:43;;;;;;;24.67;16.20;;;6.30;99.90;;;;;;5009250;28;20187;-73
2021/11/12 03:15:11;;;;;;;21.83;15.87;;;6.30;99.90;;;;;;5016311;28;20211;-73
2021/11/12 03:17:38;;;;;;;22.43;15.27;;;6.30;99.90;;;;;;5015276;28;20548;-73
2021/11/12 03:20:07;;;;;;;22.10;15.80;;;6.40;99.90;;;;;;5015690;28;20419;-73
2021/11/12 03:22:41;;;;;;;23.03;17.10;;;6.40;99.90;;;;;;5016241;28;20429;-72
2021/11/12 03:25:12;;;;;;;24.03;17.10;;;6.40;99.90;;;;;;5016738;28;20766;-73
2021/11/12 03:27:46;;;;;;;23.93;15.90;;;6.40;99.90;;;;;;5015871;28;20398;-73
2021/11/12 04:02:32;;;;;;;21.57;14.87;;;6.00;99.90;;;;;;5018063;28;20164;-73
2021/11/12 04:05:12;;;;;;;22.20;15.30;;;6.10;99.90;;;;;;5017835;28;20918;-73
2021/11/12 04:21:32;;;;;;;24.60;16.57;;;6.00;99.90;;;;;;5035822;28;20408;-73
2021/11/12 05:10:42;;;;;;;18.87;13.77;;;7.00;99.90;;;;;;4980625;28;20541;-70
2021/11/12 05:13:29;;;;;;;19.27;13.43;;;7.00;99.90;;;;;;4992798;28;20429;-70
2021/11/12 05:56:41;;;;;;;15.90;12.03;;;6.80;99.90;;;;;;4996069;28;20541;-70
2021/11/12 05:59:10;;;;;;;16.43;13.33;;;6.80;99.90;;;;;;4990942;28;20451;-70
2021/11/12 06:01:35;;;;;;;15.70;12.20;;;6.80;99.90;;;;;;4990895;28;20473;-70
2021/11/12 06:04:02;;;;;;;19.87;14.00;;;6.70;99.90;;;;;;4990955;28;20550;-70
2021/11/12 06:06:28;;;;;;;16.07;12.47;;;6.80;99.90;;;;;;4987701;28;20219;-70
2021/11/12 06:08:54;;;;;;;17.07;13.77;;;6.80;99.90;;;;;;4989349;28;20451;-69
2021/11/12 06:11:20;;;;;;;17.83;13.30;;;6.80;99.90;;;;;;4990252;28;20227;-70
2021/11/12 06:13:46;;;;;;;18.07;13.17;;;6.80;99.90;;;;;;4988369;28;20293;-70
2021/11/12 06:16:12;;;;;;;16.90;12.93;;;6.90;99.90;;;;;;4988834;28;20557;-70
2021/11/12 06:18:37;;;;;;;16.53;13.47;;;6.90;99.90;;;;;;4988202;28;20507;-71
2021/11/12 06:21:03;;;;;;;15.60;13.60;;;6.90;99.90;;;;;;4989740;28;20212;-71
2021/11/12 06:23:29;;;;;;;18.37;14.43;;;6.80;99.90;;;;;;4989966;28;20208;-71
2021/11/12 06:25:55;;;;;;;17.87;14.13;;;6.70;99.90;;;;;;4990358;28;20295;-71
2021/11/12 06:28:20;;;;;;;17.40;14.10;;;6.80;99.90;;;;;;4989811;28;20554;-70
2021/11/12 06:30:48;;;;;;;18.03;13.13;;;6.80;99.90;;;;;;4969342;28;20208;-70
2021/11/12 06:33:14;;;;;;;17.03;13.43;;;6.90;99.90;;;;;;4991140;28;20220;-71
2021/11/12 06:35:40;;;;;;;18.30;13.40;;;6.80;99.90;;;;;;4993504;28;20582;-71
2021/11/12 06:38:05;;;;;;;18.97;14.80;;;6.80;99.90;;;;;;4990386;28;20212;-70
2021/11/12 06:40:31;;;;;;;20.07;15.73;;;6.90;99.90;;;;;;4991603;28;20214;-70
2021/11/12 06:43:42;;;;;;;20.00;14.47;;;6.90;99.90;;;;;;4979292;28;20889;-70
2021/11/12 06:51:34;;;;;;;18.23;14.13;;;6.90;99.90;;;;;;4950135;29;20495;-70
2021/11/12 06:54:00;;;;;;;17.90;14.00;;;6.90;99.90;;;;;;4932508;29;20465;-70
2021/11/12 06:56:26;;;;;;;21.90;15.80;;;6.80;99.90;;;;;;4928720;29;20216;-70
2021/11/12 06:58:52;;;;;;;19.13;15.40;;;6.80;99.90;;;;;;4913912;29;20530;-72
2021/11/12 07:01:18;;;;;;;17.00;13.90;;;6.90;99.90;;;;;;4914044;29;20209;-71
2021/11/12 07:03:44;;;;;;;21.10;15.10;;;6.90;99.90;;;;;;4926824;29;20951;-71
2021/11/12 07:06:10;;;;;;;17.03;13.67;;;6.80;99.90;;;;;;4950747;28;20453;-70
2021/11/12 07:08:35;;;;;;;20.97;16.40;;;6.80;99.90;;;;;;4951813;29;20453;-71
2021/11/12 07:11:01;;;;;;;18.67;14.90;;;6.90;99.90;;;;;;4952458;29;20226;-72
2021/11/12 07:13:30;;;;;;;20.50;14.43;;;6.80;99.90;;;;;;4945243;29;20206;-69
2021/11/12 07:15:57;;;;;;;18.50;15.00;;;6.90;99.90;;;;;;4932519;29;20469;-69
2021/11/12 07:18:26;;;;;;;19.87;15.27;;;6.90;99.90;;;;;;4931640;29;20519;-70
2021/11/12 07:20:53;;;;;;;18.30;13.97;;;6.90;99.90;;;;;;4974996;28;20502;-70
2021/11/12 07:23:20;;;;;;;24.20;15.87;;;6.90;99.90;;;;;;4955897;28;20448;-70
2021/11/12 07:25:48;;;;;;;21.53;15.47;;;6.90;99.90;;;;;;4971661;28;20444;-71
2021/11/12 07:28:13;;;;;;;19.77;14.90;;;7.00;99.90;;;;;;4973947;28;20467;-70
2021/11/12 07:30:42;;;;;;;18.97;15.27;;;7.00;99.90;;;;;;4992371;28;20493;-71
2021/11/12 07:33:11;;;;;;;18.77;14.17;;;7.00;99.90;;;;;;4992163;28;20196;-70
2021/11/12 07:35:44;;;;;;;17.10;13.57;;;7.00;99.90;;;;;;4990328;28;20474;-70
2021/11/12 07:38:24;;;;;;;16.33;14.27;;;7.10;99.90;;;;;;4995218;28;20435;-71
2021/11/12 07:46:11;;;;;;;18.67;13.40;;;6.90;99.90;;;;;;4995244;28;20818;-71
2021/11/12 07:48:37;;;;;;;18.73;16.07;;;6.90;99.90;;;;;;4972764;28;20854;-71
2021/11/12 07:51:03;;;;;;;20.67;14.90;;;6.90;99.90;;;;;;4973073;28;20437;-71
2021/11/12 07:53:28;;;;;;;18.73;14.80;;;6.90;99.90;;;;;;4977776;28;20440;-72
2021/11/12 07:55:54;;;;;;;18.47;15.10;;;6.90;99.90;;;;;;4991214;28;20211;-71
2021/11/12 07:58:20;;;;;;;18.97;14.77;;;6.90;99.90;;;;;;4992145;28;20192;-70
2021/11/12 08:00:47;;;;;;;18.40;14.00;;;7.00;99.90;;;;;;4992041;28;20196;-70
2021/11/12 08:03:14;;;;;;;33.17;16.57;;;7.10;99.90;;;;;;4991383;28;20453;-70
2021/11/12 08:05:41;;;;;;;20.80;14.00;;;7.20;99.90;;;;;;4973888;28;20467;-70
2021/11/12 08:08:10;;;;;;;18.53;14.50;;;7.20;99.90;;;;;;4974252;28;20467;-70
2021/11/12 08:10:46;;;;;;;17.93;14.40;;;7.30;99.90;;;;;;4974006;28;20521;-70
2021/11/12 08:13:16;;;;;;;19.27;14.00;;;7.30;99.90;;;;;;4974172;28;20435;-71
2021/11/12 08:18:55;;;;;;;20.60;15.73;;;7.30;99.90;;;;;;4991845;28;20968;-70
2021/11/12 08:21:05;;;;;;;24.00;15.50;;;7.40;99.90;;;;;;4983710;28;20449;-71
2021/11/12 08:32:04;;;;;;;17.20;14.30;;;7.30;99.90;;;;;;4995667;28;20521;-71
2021/11/12 08:34:44;;;;;;;17.70;14.40;;;7.30;99.90;;;;;;4978094;28;20489;-71
2021/11/12 08:42:21;;;;;;;19.87;14.63;;;7.30;99.90;;;;;;5004556;28;20454;-71
2021/11/12 08:45:05;;;;;;;24.60;16.80;;;7.30;99.90;;;;;;4977799;28;20215;-72
2021/11/12 08:47:36;;;;;;;18.23;15.03;;;7.30;99.90;;;;;;4995366;28;20466;-71
2021/11/12 08:50:04;;;;;;;21.23;14.60;;;7.40;99.90;;;;;;4995814;28;20461;-71
2021/11/12 08:52:30;;;;;;;19.07;14.77;;;7.40;99.90;;;;;;4976264;28;20967;-71
2021/11/12 08:54:56;;;;;;;19.77;15.60;;;7.50;99.90;;;;;;4994358;28;20627;-71
2021/11/12 08:57:22;;;;;;;18.73;14.90;;;7.60;99.90;;;;;;4977905;28;20299;-71
2021/11/12 08:59:50;;;;;;;18.13;14.93;;;7.50;99.90;;;;;;4995549;28;20851;-70
2021/11/12 09:02:19;;;;;;;22.33;16.10;;;7.50;99.90;;;;;;4994232;28;20259;-69
2021/11/12 09:04:48;;;;;;;19.87;13.90;;;7.60;99.90;;;;;;4976972;28;20447;-70
2021/11/12 09:07:15;;;;;;;23.93;14.30;;;7.60;99.90;;;;;;4995047;28;20443;-70
2021/11/12 09:09:41;;;;;;;18.10;14.80;;;7.60;99.90;;;;;;4996025;28;20439;-71
2021/11/12 09:12:11;;;;;;;21.40;15.03;;;7.60;99.90;;;;;;5002391;28;20453;-70
2021/11/12 09:14:40;;;;;;;20.40;15.07;;;7.70;99.90;;;;;;5002194;28;20451;-70
2021/11/12 09:17:07;;;;;;;21.23;16.07;;;7.70;99.90;;;;;;5002664;28;20491;-69
2021/11/12 09:19:45;;;;;;;20.57;15.60;;;7.50;99.90;;;;;;4995236;28;20435;-71
2021/11/12 09:22:15;;;;;;;21.10;15.70;;;7.60;99.90;;;;;;4994604;28;20518;-71
2021/11/12 09:24:42;;;;;;;18.30;15.27;;;7.60;99.90;;;;;;4992711;28;21006;-71
2021/11/12 09:27:08;;;;;;;20.43;15.30;;;7.70;99.90;;;;;;4994958;28;20578;-70
2021/11/12 09:29:34;;;;;;;23.37;16.93;;;7.80;99.90;;;;;;4994965;28;20415;-70
2021/11/12 09:31:59;;;;;;;23.80;14.83;;;8.00;99.90;;;;;;4994760;28;20546;-71
2021/11/12 09:34:25;;;;;;;19.93;16.27;;;8.10;99.90;;;;;;4993576;28;20674;-71
2021/11/12 09:36:50;;;;;;;20.93;15.90;;;8.20;99.90;;;;;;4995438;28;20243;-71
2021/11/12 09:39:16;;;;;;;22.77;15.67;;;8.20;99.90;;;;;;5007385;28;20176;-71
2021/11/12 09:41:44;;;;;;;20.27;14.77;;;8.10;99.90;;;;;;5014782;28;20251;-73
2021/11/12 09:44:10;;;;;;;22.73;15.27;;;8.00;99.90;;;;;;5016167;28;20691;-74
2021/11/12 09:46:36;;;;;;;19.17;14.80;;;8.10;99.90;;;;;;4984317;28;20848;-73
2021/11/12 09:49:03;;;;;;;23.77;16.43;;;8.10;99.90;;;;;;4978338;28;20420;-75
2021/11/12 09:51:29;;;;;;;19.33;15.93;;;8.00;99.90;;;;;;4977219;28;20532;-72
2021/11/12 09:53:55;;;;;;;22.30;16.50;;;8.00;99.90;;;;;;4977009;28;20435;-73
2021/11/12 09:56:21;;;;;;;23.10;16.30;;;7.90;99.90;;;;;;4960319;28;20460;-74
2021/11/12 09:58:50;;;;;;;21.30;16.07;;;8.00;99.90;;;;;;4977895;28;20516;-73
2021/11/12 10:01:24;;;;;;;21.23;15.70;;;8.10;99.90;;;;;;4977449;28;20181;-73
2021/11/12 10:03:50;;;;;;;22.10;16.77;;;8.10;99.90;;;;;;4975718;28;20431;-72
2021/11/12 10:06:27;;;;;;;24.20;16.67;;;8.10;99.90;;;;;;4976390;28;20910;-73
2021/11/12 10:08:54;;;;;;;27.67;17.10;;;8.10;99.90;;;;;;4977265;28;20195;-73
2021/11/12 10:11:29;;;;;;;21.20;16.80;;;8.20;99.90;;;;;;4976197;28;20416;-74
2021/11/12 10:14:00;;;;;;;21.03;16.30;;;8.30;99.90;;;;;;4958798;28;20853;-71
2021/11/12 10:16:36;;;;;;;24.83;15.97;;;8.30;99.90;;;;;;4976636;28;20469;-72
2021/11/12 10:19:14;;;;;;;22.73;16.77;;;8.40;99.90;;;;;;4976580;28;20424;-70
2021/11/12 10:21:43;;;;;;;18.93;15.23;;;8.50;99.90;;;;;;4958703;28;20963;-70
2021/11/12 10:24:16;;;;;;;18.00;15.00;;;8.60;99.90;;;;;;4975427;28;20487;-71
2021/11/12 10:26:49;;;;;;;21.07;15.67;;;8.60;99.90;;;;;;4965527;28;20858;-70
2021/11/12 10:29:18;;;;;;;18.47;15.13;;;8.70;99.90;;;;;;4960988;28;20437;-71
2021/11/12 10:31:47;;;;;;;22.38;17.80;;;8.70;99.90;;;;;;4959159;28;20426;-71
2021/11/12 10:34:19;;;;;;;23.57;16.30;;;8.80;99.90;;;;;;5004373;22;20227;-73
2021/11/12 10:37:06;;;;;;;19.73;15.77;;;8.80;99.90;;;;;;5005589;28;20469;-74
2021/11/12 10:39:39;;;;;;;21.37;16.07;;;8.90;99.90;;;;;;5021041;28;20422;-73
2021/11/12 10:42:26;;;;;;;19.77;15.53;;;9.00;99.90;;;;;;5025022;28;20442;-72
2021/11/12 10:44:56;;;;;;;18.67;14.87;;;9.00;99.90;;;;;;5015557;28;20446;-73
2021/11/12 10:47:23;;;;;;;21.50;16.40;;;9.10;99.90;;;;;;5016577;28;20395;-73
2021/11/12 10:49:50;;;;;;;21.40;15.90;;;9.10;99.90;;;;;;5015627;28;20494;-73
2021/11/12 10:52:20;;;;;;;22.40;16.20;;;9.10;99.90;;;;;;5014836;28;20459;-73
2021/11/12 10:54:53;;;;;;;20.07;15.53;;;9.20;99.90;;;;;;5014859;28;20448;-73
2021/11/12 10:57:33;;;;;;;19.97;15.67;;;9.30;99.90;;;;;;5015146;28;20451;-74
2021/11/12 11:00:10;;;;;;;18.63;14.17;;;9.40;99.90;;;;;;5015573;28;20960;-74
2021/11/12 11:02:50;;;;;;;21.30;15.13;;;9.40;99.90;;;;;;4997260;28;20448;-73
2021/11/12 11:05:27;;;;;;;19.00;15.53;;;9.50;99.90;;;;;;5015598;28;20735;-74
2021/11/12 11:07:58;;;;;;;18.80;15.90;;;9.50;99.90;;;;;;5013957;28;20434;-73
2021/11/12 11:10:35;;;;;;;19.90;15.67;;;9.60;99.90;;;;;;5015771;28;20397;-72
2021/11/12 11:13:17;;;;;;;20.67;15.73;;;9.60;99.90;;;;;;5014762;28;20462;-73
2021/11/12 11:15:56;;;;;;;20.60;14.37;;;9.60;99.90;;;;;;5014635;28;20497;-72
2021/11/12 11:18:24;;;;;;;16.30;14.23;;;9.70;99.90;;;;;;5014582;28;20474;-71
2021/11/12 11:21:02;;;;;;;18.20;13.50;;;9.80;99.90;;;;;;5013834;28;20487;-72
2021/11/12 11:23:30;;;;;;;19.00;14.27;;;9.80;99.90;;;;;;5013939;28;20421;-72
2021/11/12 11:26:00;;;;;;;20.40;13.43;;;9.90;99.90;;;;;;5013531;28;21012;-72
2021/11/12 11:28:25;;;;;;;15.87;13.00;;;10.00;99.90;;;;;;5013905;28;20480;-72
2021/11/12 11:30:51;;;;;;;17.47;13.27;;;10.10;99.90;;;;;;5016172;28;20417;-72
2021/11/12 11:33:18;;;;;;;16.93;13.33;;;10.10;99.90;;;;;;5015913;28;20338;-72
2021/11/12 11:35:46;;;;;;;19.60;14.03;;;10.10;99.90;;;;;;5014596;28;20217;-72
2021/11/12 11:38:15;;;;;;;18.50;14.07;;;10.20;99.90;;;;;;5017198;28;20416;-72
2021/11/12 11:40:48;;;;;;;15.03;13.20;;;10.20;99.90;;;;;;5035454;28;20409;-73
2021/11/12 11:43:15;;;;;;;17.50;13.70;;;10.10;99.90;;;;;;5035104;28;20941;-72
2021/11/12 11:45:46;;;;;;;17.97;13.90;;;10.10;99.90;;;;;;5007373;28;20516;-72
2021/11/12 11:48:13;;;;;;;16.00;13.67;;;10.00;99.90;;;;;;4997433;28;20428;-72
2021/11/12 11:50:39;;;;;;;17.90;13.27;;;10.00;99.90;;;;;;5015226;28;20551;-72
2021/11/12 11:53:31;;;;;;;17.40;13.77;;;10.10;99.90;;;;;;5014745;28;21042;-72
2021/11/12 11:56:35;;;;;;;14.90;12.23;;;10.10;99.90;;;;;;5013304;28;20213;-72
2021/11/12 11:59:16;;;;;;;17.67;13.73;;;10.10;99.90;;;;;;4997375;28;20420;-72
2021/11/12 12:01:50;;;;;;;17.00;13.60;;;10.10;99.90;;;;;;5015748;28;20389;-72
2021/11/12 12:04:15;;;;;;;18.50;12.70;;;10.10;99.90;;;;;;5015868;28;20484;-71
2021/11/12 12:06:43;;;;;;;15.82;14.10;;;10.20;99.90;;;;;;5000952;28;20471;-72
2021/11/12 12:09:12;;;;;;;16.87;13.67;;;10.20;99.90;;;;;;5021168;28;20211;-72
2021/11/12 12:11:42;;;;;;;14.70;13.07;;;10.10;99.90;;;;;;5023390;28;20454;-70
2021/11/12 12:14:27;;;;;;;17.97;14.27;;;10.20;99.90;;;;;;5023737;28;20452;-72
2021/11/12 12:17:12;;;;;;;19.10;13.40;;;10.20;99.90;;;;;;5020186;28;20599;-73
2021/11/12 12:20:24;;;;;;;15.80;13.13;;;10.30;99.90;;;;;;5009592;28;20594;-72
2021/11/12 13:25:50;;;;;;;15.67;12.03;;;10.60;99.90;;;;;;5019702;28;21042;-73
2021/11/12 13:28:26;;;;;;;14.50;12.30;;;10.60;99.90;;;;;;5019601;28;20449;-72
2021/11/12 13:31:04;;;;;;;14.13;12.30;;;10.60;99.90;;;;;;5030429;28;20555;-72
2021/11/12 13:33:40;;;;;;;15.97;12.70;;;10.70;99.90;;;;;;5026278;28;20464;-71
2021/11/12 13:36:28;;;;;;;13.43;11.80;;;10.70;99.90;;;;;;5033836;28;20465;-73
2021/11/12 13:38:56;;;;;;;20.10;14.23;;;10.80;99.90;;;;;;5042492;28;20441;-73
2021/11/12 13:41:26;;;;;;;17.90;13.07;;;10.90;99.90;;;;;;5054798;28;20431;-73
2021/11/12 13:44:06;;;;;;;16.13;11.83;;;10.90;99.90;;;;;;5041951;28;20410;-73
2021/11/12 13:46:42;;;;;;;13.13;11.37;;;11.00;99.90;;;;;;5020789;28;20394;-73
2021/11/12 13:49:07;;;;;;;14.30;11.70;;;11.10;99.90;;;;;;5020733;28;20840;-72
2021/11/12 13:51:33;;;;;;;14.67;12.67;;;11.20;99.90;;;;;;5020899;28;20446;-73
2021/11/12 13:54:04;;;;;;;13.60;12.17;;;11.20;99.90;;;;;;5021009;28;20265;-72
2021/11/12 13:56:33;;;;;;;16.40;12.50;;;11.30;99.90;;;;;;5020543;28;20245;-73
2021/11/12 13:59:13;;;;;;;12.80;11.30;;;11.40;99.90;;;;;;5021124;28;20402;-73
2021/11/12 14:01:39;;;;;;;14.53;12.10;;;11.40;99.90;;;;;;5019794;28;20402;-73
2021/11/12 14:04:25;;;;;;;19.50;11.87;;;11.30;99.90;;;;;;5019309;28;20521;-72
2021/11/12 14:06:52;;;;;;;15.20;12.67;;;11.30;99.90;;;;;;5019466;28;20472;-73
2021/11/12 14:09:23;;;;;;;14.03;11.73;;;11.30;99.90;;;;;;5019395;28;20413;-74
2021/11/12 14:12:06;;;;;;;13.40;10.70;;;11.30;99.90;;;;;;5002180;28;20419;-74
2021/11/12 14:14:33;;;;;;;14.07;12.10;;;11.30;99.90;;;;;;5018730;28;20514;-71
2021/11/12 14:17:29;;;;;;;14.10;11.80;;;11.20;99.90;;;;;;5019135;28;20469;-72
2021/11/12 14:20:31;;;;;;;14.37;12.23;;;11.10;99.90;;;;;;5019588;28;20541;-73
2021/11/12 14:23:19;;;;;;;14.73;12.30;;;11.10;99.90;;;;;;5018880;28;20436;-73
2021/11/12 14:34:56;;;;;;;11.47;10.27;;;11.10;99.90;;;;;;4976912;28;20427;-72
2021/11/12 14:39:35;;;;;;;10.97;9.73;;;11.00;99.90;;;;;;4988164;28;20419;-75
2021/11/12 14:44:45;;;;;;;13.90;10.80;;;11.00;99.90;;;;;;4973316;28;20884;-74
2021/11/12 14:49:44;;;;;;;12.63;10.63;;;10.90;99.90;;;;;;4976884;28;20860;-74
2021/11/12 14:52:23;;;;;;;13.87;10.30;;;10.90;99.90;;;;;;4976133;28;20181;-74
2021/11/12 14:55:03;;;;;;;11.47;9.90;;;10.90;99.90;;;;;;4973972;28;20933;-75
2021/11/12 14:57:31;;;;;;;12.40;10.73;;;10.80;99.90;;;;;;4975898;28;20548;-74
2021/11/12 15:00:05;;;;;;;12.40;10.30;;;10.70;99.90;;;;;;4973396;28;20475;-73
2021/11/12 15:02:33;;;;;;;13.67;10.70;;;10.70;99.90;;;;;;4972561;28;20463;-74
2021/11/12 15:04:59;;;;;;;11.40;9.90;;;10.70;99.90;;;;;;4972422;28;20464;-74
2021/11/12 15:10:13;;;;;;;16.53;11.50;;;10.50;99.90;;;;;;4979013;28;20275;-73
2021/11/12 15:12:41;;;;;;;13.57;11.47;;;10.40;99.90;;;;;;4990753;28;20424;-74
2021/11/12 15:15:07;;;;;;;12.07;10.67;;;10.30;99.90;;;;;;4999991;28;20466;-73
2021/11/12 15:17:32;;;;;;;13.87;11.20;;;10.20;99.90;;;;;;5000989;28;20562;-73
2021/11/12 15:19:59;;;;;;;13.10;10.40;;;10.20;99.90;;;;;;5009130;28;20509;-74
2021/11/12 15:30:09;;;;;;;13.20;10.43;;;10.00;99.90;;;;;;5004687;28;20195;-73
2021/11/12 15:32:37;;;;;;;12.57;10.90;;;10.00;99.90;;;;;;5009231;28;20446;-73
2021/11/12 15:35:06;;;;;;;15.57;11.70;;;10.00;99.90;;;;;;5008054;28;20462;-73
2021/11/12 15:45:12;;;;;;;13.10;11.20;;;9.70;99.90;;;;;;5009960;28;20450;-73
2021/11/12 15:47:45;;;;;;;14.33;11.03;;;9.70;99.90;;;;;;5013138;28;20449;-73
2021/11/12 15:50:25;;;;;;;14.93;10.20;;;9.70;99.90;;;;;;5005792;28;20429;-71
2021/11/12 15:53:09;;;;;;;16.27;12.07;;;9.60;99.90;;;;;;4993891;28;20948;-74
2021/11/12 16:06:45;;;;;;;16.23;11.77;;;9.50;99.90;;;;;;5005592;28;21036;-74
2021/11/12 16:12:12;;;;;;;13.00;10.90;;;9.40;99.90;;;;;;5009485;28;20453;-73
2021/11/12 16:14:47;;;;;;;14.43;12.33;;;9.40;99.90;;;;;;5009512;28;20938;-73
2021/11/12 16:20:04;;;;;;;13.77;11.70;;;9.30;99.90;;;;;;5011967;28;20449;-75
2021/11/12 16:22:45;;;;;;;15.50;12.43;;;9.20;99.90;;;;;;5007897;28;20445;-72
2021/11/12 16:25:14;;;;;;;15.70;13.80;;;9.30;99.90;;;;;;5014446;28;20456;-73
2021/11/12 16:27:50;;;;;;;14.70;12.43;;;9.30;99.90;;;;;;5012080;28;21159;-73
2021/11/12 16:30:20;;;;;;;13.27;11.07;;;9.30;99.90;;;;;;5013284;28;20674;-71
2021/11/12 16:32:50;;;;;;;14.67;11.23;;;9.30;99.90;;;;;;5012954;28;21052;-72
2021/11/12 16:35:20;;;;;;;12.77;10.57;;;9.20;99.90;;;;;;5011447;28;20556;-72
2021/11/12 16:37:48;;;;;;;14.27;11.27;;;9.20;99.90;;;;;;4992586;28;20558;-72
2021/11/12 16:48:19;;;;;;;14.40;11.17;;;9.00;99.90;;;;;;5008916;28;20555;-73
2021/11/12 17:03:25;;;;;;;16.47;11.23;;;8.70;99.90;;;;;;5010777;28;20553;-73
2021/11/12 17:06:11;;;;;;;16.50;12.63;;;8.70;99.90;;;;;;5003647;28;20239;-73
2021/11/12 17:21:39;;;;;;;14.90;11.87;;;8.60;99.90;;;;;;5014834;28;20468;-72
2021/11/12 17:44:47;;;;;;;15.20;10.90;;;8.60;99.90;;;;;;5022248;28;20607;-73
2021/11/12 17:48:38;;;;;;;15.93;12.37;;;8.40;99.90;;;;;;5048226;28;20901;-72
2021/11/12 18:23:04;;;;;;;13.93;11.20;;;8.40;99.90;;;;;;5030422;28;20423;-71
2021/11/12 21:45:45;;;;;;;10.93;9.73;;;9.00;99.90;;;;;;5042086;28;20468;-71
2021/11/12 21:48:11;;;;;;;12.93;10.10;;;9.00;99.90;;;;;;5047769;28;20408;-72
2021/11/12 21:50:37;;;;;;;13.77;10.57;;;8.90;99.90;;;;;;5031886;28;20836;-73
2021/11/12 21:53:05;;;;;;;13.57;11.20;;;9.00;99.90;;;;;;5031418;28;20184;-73
2021/11/12 21:55:32;;;;;;;13.43;10.60;;;8.80;99.90;;;;;;5029942;28;20435;-73
2021/11/12 21:57:58;;;;;;;12.37;10.20;;;8.80;99.90;;;;;;5013970;28;20412;-72
2021/11/12 22:00:24;;;;;;;12.47;10.10;;;8.80;99.90;;;;;;5038203;28;20414;-70
2021/11/12 22:02:50;;;;;;;15.00;10.53;;;8.90;99.90;;;;;;5039636;28;20416;-70
2021/11/12 22:05:15;;;;;;;12.37;9.90;;;8.90;99.90;;;;;;5030440;28;20201;-71
2021/11/12 22:07:41;;;;;;;12.20;10.33;;;9.00;99.90;;;;;;5030011;28;20772;-71
2021/11/12 22:10:07;;;;;;;12.80;10.50;;;9.00;99.90;;;;;;5030355;28;20186;-70
2021/11/12 22:12:35;;;;;;;13.20;9.63;;;9.00;99.90;;;;;;5030344;28;20194;-71
2021/11/12 22:15:01;;;;;;;12.90;11.00;;;9.00;99.90;;;;;;5030054;28;20471;-71
2021/11/12 22:17:26;;;;;;;13.80;10.90;;;9.00;99.90;;;;;;5029919;28;20556;-69
2021/11/12 22:19:52;;;;;;;12.30;10.27;;;9.00;99.90;;;;;;5029521;28;20527;-72
2021/11/12 22:22:18;;;;;;;12.63;10.43;;;9.00;99.90;;;;;;5030392;28;20669;-71
2021/11/12 22:24:43;;;;;;;12.70;10.00;;;9.00;99.90;;;;;;5030008;28;20186;-71
2021/11/12 22:27:09;;;;;;;13.57;11.00;;;9.00;99.90;;;;;;5030470;28;20193;-72
2021/11/12 22:29:35;;;;;;;13.33;10.77;;;9.00;99.90;;;;;;5030049;28;20213;-72
2021/11/12 22:32:01;;;;;;;13.70;9.80;;;9.00;99.90;;;;;;5030302;28;20182;-72
2021/11/12 22:34:28;;;;;;;14.40;11.10;;;9.00;99.90;;;;;;5030301;28;20182;-71
2021/11/12 22:36:53;;;;;;;12.60;10.60;;;9.00;99.90;;;;;;5029288;28;21027;-72
2021/11/12 22:39:21;;;;;;;12.97;10.53;;;9.10;99.90;;;;;;5029676;28;20414;-72
2021/11/12 22:41:48;;;;;;;13.63;11.23;;;9.10;99.90;;;;;;5032037;28;20186;-71
2021/11/12 22:44:15;;;;;;;14.30;11.00;;;9.00;99.90;;;;;;5040413;28;20410;-71